Algowood — VCTD — position and weather

sailwx.info

Track history (hours):
 
Tides and Currents Weather Stations Pressure Air Temp Water Temp Dewpoint Dewpoint Depression Visibility Wind Speed Wind Dir Waves Ship Positions

Algowood

Last reported at 2015-Aug-26 11:34 UTC. Time now 2015-Aug-29 17:03 UTC.
Position N 44°08' W 076°21'.

Length 223 m; draft 8.1 m.

Type: Cargo ship. MMSI: 316001802.

Date/timePositionNaut miles runAvg speedWind from/ knotsBaromVisibWave heightAir tempDewpointWater temp
2015-Aug-26 11:34N 44°08' W 076°21'0 0.1
2015-Aug-26 10:33N 44°08' W 076°20'0 0.0
2015-Aug-26 09:33N 44°08' W 076°20'0 0.0
2015-Aug-26 08:34N 44°08' W 076°20'0 0.0
2015-Aug-26 07:34N 44°08' W 076°20'0 0.0
2015-Aug-26 06:34N 44°08' W 076°20'0 0.2
2015-Aug-26 05:34N 44°08' W 076°21'0 0.2
2015-Aug-26 04:33N 44°08' W 076°20'0 0.0
2015-Aug-26 03:33N 44°08' W 076°20'0 0.0
2015-Aug-26 02:33N 44°08' W 076°20'0 0.0
2015-Aug-26 01:34N 44°08' W 076°20'0 0.0
2015-Aug-26 00:33N 44°08' W 076°20'0 0.0
2015-Aug-25 23:33N 44°08' W 076°20'0 0.0
2015-Aug-25 22:33N 44°08' W 076°20'0 0.0
2015-Aug-25 21:34N 44°08' W 076°20'0 0.0
2015-Aug-25 20:33N 44°08' W 076°20'0 0.0
2015-Aug-25 19:33N 44°08' W 076°20'0 0.0
2015-Aug-25 18:33N 44°08' W 076°20'0 0.0
2015-Aug-25 17:33N 44°08' W 076°20'0 0.0
2015-Aug-25 16:33N 44°08' W 076°20'0 0.0
2015-Aug-25 15:33N 44°08' W 076°20'0 0.0
2015-Aug-25 14:33N 44°08' W 076°20'0 0.0
2015-Aug-25 13:33N 44°08' W 076°20'0 0.0
2015-Aug-25 12:33N 44°08' W 076°20'0 0.0
2015-Aug-25 11:33N 44°08' W 076°20'0 0.0
2015-Aug-25 10:34N 44°08' W 076°20'0 0.0
2015-Aug-25 09:33N 44°08' W 076°20'0 0.0
2015-Aug-25 08:33N 44°08' W 076°20'0 0.0
2015-Aug-25 07:33N 44°08' W 076°20'0 0.1
2015-Aug-25 06:34N 44°08' W 076°21'0 0.1
2015-Aug-25 05:33N 44°08' W 076°20'0 0.0
2015-Aug-25 04:33N 44°08' W 076°20'0 0.0
2015-Aug-25 03:33N 44°08' W 076°20'0 0.0
2015-Aug-25 02:33N 44°08' W 076°20'0 0.0
2015-Aug-25 01:33N 44°08' W 076°20'0 0.0
2015-Aug-25 00:33N 44°08' W 076°20'0 0.0
2015-Aug-24 23:33N 44°08' W 076°20'0 0.0
2015-Aug-24 22:34N 44°08' W 076°20'0 0.0
2015-Aug-24 21:33N 44°08' W 076°20'0 0.0
2015-Aug-24 20:33N 44°08' W 076°20'0 0.0
2015-Aug-24 19:33N 44°08' W 076°20'0 0.0
2015-Aug-24 18:33N 44°08' W 076°20'0 0.0
2015-Aug-24 17:33N 44°08' W 076°20'0 0.0
2015-Aug-24 16:34N 44°08' W 076°20'0 0.0
2015-Aug-24 15:34N 44°08' W 076°20'0 0.0
2015-Aug-24 14:34N 44°08' W 076°20'0 0.0
2015-Aug-24 13:33N 44°08' W 076°20'0 0.0
2015-Aug-24 12:34N 44°08' W 076°20'0 0.1
2015-Aug-24 11:34N 44°08' W 076°20'0 0.1
2015-Aug-24 10:34N 44°08' W 076°20'0 0.0
2015-Aug-24 09:34N 44°08' W 076°20'0 0.0
2015-Aug-24 08:33N 44°08' W 076°20'0 0.0
2015-Aug-24 07:33N 44°08' W 076°20'8310.4
2015-Aug-23 23:33N 43°33' W 078°05'1211.3
2015-Aug-23 22:29N 43°29' W 078°21'1111.0
2015-Aug-23 21:28N 43°26' W 078°36'1010.8
2015-Aug-23 20:33N 43°23' W 078°49'1110.9
2015-Aug-23 19:33N 43°20' W 079°03'10 9.7
2015-Aug-23 18:33N 43°14' W 079°13'1 1.1
2015-Aug-23 17:33N 43°13' W 079°13'1 1.3
2015-Aug-23 16:33N 43°12' W 079°12'2 2.3
2015-Aug-23 15:33N 43°09' W 079°12'1 0.8
2015-Aug-23 14:33N 43°08' W 079°12'0 0.5
2015-Aug-23 13:33N 43°08' W 079°12'1 0.5
2015-Aug-23 12:33N 43°07' W 079°12'1 0.5
2015-Aug-23 11:33N 43°07' W 079°12'0 0.0
2015-Aug-23 10:33N 43°07' W 079°12'1 0.5
2015-Aug-23 09:33N 43°06' W 079°12'3 3.1
2015-Aug-23 08:33N 43°03' W 079°13'  
2015-Aug-19 22:19N 42°22' W 080°29'9 8.3
2015-Aug-19 21:16N 42°24' W 080°18'7 8.2
2015-Aug-19 20:24N 42°25' W 080°08'8 9.1
2015-Aug-19 19:33N 42°31' W 080°01'1111.2
2015-Aug-19 18:33N 42°42' W 080°05'5 5.3
2015-Aug-19 17:33N 42°47' W 080°05'0 0.0
2015-Aug-19 16:33N 42°47' W 080°05'0 0.0
2015-Aug-19 15:33N 42°47' W 080°05'0 0.0
2015-Aug-19 14:33N 42°47' W 080°05'0 0.0
2015-Aug-19 13:33N 42°47' W 080°05'0 0.0
2015-Aug-19 12:33N 42°47' W 080°05'0 0.0
2015-Aug-19 11:33N 42°47' W 080°05'0 0.0
2015-Aug-19 10:33N 42°47' W 080°05'4 4.0
2015-Aug-19 09:33N 42°43' W 080°07'1110.7
2015-Aug-19 08:33N 42°34' W 080°00'10 9.6
2015-Aug-19 07:33N 42°26' W 080°09'256 6.9
2015-Aug-17 18:33N 45°50' W 083°45'1512.5
2015-Aug-17 17:22N 46°02' W 083°56'1011.4
2015-Aug-17 16:32N 46°10' W 084°04'10 8.0
2015-Aug-17 15:18N 46°18' W 084°13'4 5.1
2015-Aug-17 14:33N 46°22' W 084°13'11 3.5
2015-Aug-17 11:32N 46°30' W 084°22'0 0.1
2015-Aug-17 10:31N 46°30' W 084°22'  
Track history (hours):
 
Tides and Currents Weather Stations Pressure Air Temp Water Temp Dewpoint Dewpoint Depression Visibility Wind Speed Wind Dir Waves Ship Positions

Algowood

Last reported at 2015-Aug-26 11:34 UTC. Time now 2015-Aug-29 17:03 UTC.
Position N 44°08' W 076°21'.

Length 223 m; draft 8.1 m.

Type: Cargo ship. MMSI: 316001802.

Date/timePositionNaut miles runAvg speedWind from/ knotsBaromVisibWave heightAir tempDewpointWater temp
2015-Aug-26 11:34N 44°08' W 076°21'0 0.1
2015-Aug-26 10:33N 44°08' W 076°20'0 0.0
2015-Aug-26 09:33N 44°08' W 076°20'0 0.0
2015-Aug-26 08:34N 44°08' W 076°20'0 0.0
2015-Aug-26 07:34N 44°08' W 076°20'0 0.0
2015-Aug-26 06:34N 44°08' W 076°20'0 0.2
2015-Aug-26 05:34N 44°08' W 076°21'0 0.2
2015-Aug-26 04:33N 44°08' W 076°20'0 0.0
2015-Aug-26 03:33N 44°08' W 076°20'0 0.0
2015-Aug-26 02:33N 44°08' W 076°20'0 0.0
2015-Aug-26 01:34N 44°08' W 076°20'0 0.0
2015-Aug-26 00:33N 44°08' W 076°20'0 0.0
2015-Aug-25 23:33N 44°08' W 076°20'0 0.0
2015-Aug-25 22:33N 44°08' W 076°20'0 0.0
2015-Aug-25 21:34N 44°08' W 076°20'0 0.0
2015-Aug-25 20:33N 44°08' W 076°20'0 0.0
2015-Aug-25 19:33N 44°08' W 076°20'0 0.0
2015-Aug-25 18:33N 44°08' W 076°20'0 0.0
2015-Aug-25 17:33N 44°08' W 076°20'0 0.0
2015-Aug-25 16:33N 44°08' W 076°20'0 0.0
2015-Aug-25 15:33N 44°08' W 076°20'0 0.0
2015-Aug-25 14:33N 44°08' W 076°20'0 0.0
2015-Aug-25 13:33N 44°08' W 076°20'0 0.0
2015-Aug-25 12:33N 44°08' W 076°20'0 0.0
2015-Aug-25 11:33N 44°08' W 076°20'0 0.0
2015-Aug-25 10:34N 44°08' W 076°20'0 0.0
2015-Aug-25 09:33N 44°08' W 076°20'0 0.0
2015-Aug-25 08:33N 44°08' W 076°20'0 0.0
2015-Aug-25 07:33N 44°08' W 076°20'0 0.1
2015-Aug-25 06:34N 44°08' W 076°21'0 0.1
2015-Aug-25 05:33N 44°08' W 076°20'0 0.0
2015-Aug-25 04:33N 44°08' W 076°20'0 0.0
2015-Aug-25 03:33N 44°08' W 076°20'0 0.0
2015-Aug-25 02:33N 44°08' W 076°20'0 0.0
2015-Aug-25 01:33N 44°08' W 076°20'0 0.0
2015-Aug-25 00:33N 44°08' W 076°20'0 0.0
2015-Aug-24 23:33N 44°08' W 076°20'0 0.0
2015-Aug-24 22:34N 44°08' W 076°20'0 0.0
2015-Aug-24 21:33N 44°08' W 076°20'0 0.0
2015-Aug-24 20:33N 44°08' W 076°20'0 0.0
2015-Aug-24 19:33N 44°08' W 076°20'0 0.0
2015-Aug-24 18:33N 44°08' W 076°20'0 0.0
2015-Aug-24 17:33N 44°08' W 076°20'0 0.0
2015-Aug-24 16:34N 44°08' W 076°20'0 0.0
2015-Aug-24 15:34N 44°08' W 076°20'0 0.0
2015-Aug-24 14:34N 44°08' W 076°20'0 0.0
2015-Aug-24 13:33N 44°08' W 076°20'0 0.0
2015-Aug-24 12:34N 44°08' W 076°20'0 0.1
2015-Aug-24 11:34N 44°08' W 076°20'0 0.1
2015-Aug-24 10:34N 44°08' W 076°20'0 0.0
2015-Aug-24 09:34N 44°08' W 076°20'0 0.0
2015-Aug-24 08:33N 44°08' W 076°20'0 0.0
2015-Aug-24 07:33N 44°08' W 076°20'8310.4
2015-Aug-23 23:33N 43°33' W 078°05'1211.3
2015-Aug-23 22:29N 43°29' W 078°21'1111.0
2015-Aug-23 21:28N 43°26' W 078°36'1010.8
2015-Aug-23 20:33N 43°23' W 078°49'1110.9
2015-Aug-23 19:33N 43°20' W 079°03'10 9.7
2015-Aug-23 18:33N 43°14' W 079°13'1 1.1
2015-Aug-23 17:33N 43°13' W 079°13'1 1.3
2015-Aug-23 16:33N 43°12' W 079°12'2 2.3
2015-Aug-23 15:33N 43°09' W 079°12'1 0.8
2015-Aug-23 14:33N 43°08' W 079°12'0 0.5
2015-Aug-23 13:33N 43°08' W 079°12'1 0.5
2015-Aug-23 12:33N 43°07' W 079°12'1 0.5
2015-Aug-23 11:33N 43°07' W 079°12'0 0.0
2015-Aug-23 10:33N 43°07' W 079°12'1 0.5
2015-Aug-23 09:33N 43°06' W 079°12'3 3.1
2015-Aug-23 08:33N 43°03' W 079°13'  
2015-Aug-19 22:19N 42°22' W 080°29'9 8.3
2015-Aug-19 21:16N 42°24' W 080°18'7 8.2
2015-Aug-19 20:24N 42°25' W 080°08'8 9.1
2015-Aug-19 19:33N 42°31' W 080°01'1111.2
2015-Aug-19 18:33N 42°42' W 080°05'5 5.3
2015-Aug-19 17:33N 42°47' W 080°05'0 0.0
2015-Aug-19 16:33N 42°47' W 080°05'0 0.0
2015-Aug-19 15:33N 42°47' W 080°05'0 0.0
2015-Aug-19 14:33N 42°47' W 080°05'0 0.0
2015-Aug-19 13:33N 42°47' W 080°05'0 0.0
2015-Aug-19 12:33N 42°47' W 080°05'0 0.0
2015-Aug-19 11:33N 42°47' W 080°05'0 0.0
2015-Aug-19 10:33N 42°47' W 080°05'4 4.0
2015-Aug-19 09:33N 42°43' W 080°07'1110.7
2015-Aug-19 08:33N 42°34' W 080°00'10 9.6
2015-Aug-19 07:33N 42°26' W 080°09'256 6.9
2015-Aug-17 18:33N 45°50' W 083°45'1512.5
2015-Aug-17 17:22N 46°02' W 083°56'1011.4
2015-Aug-17 16:32N 46°10' W 084°04'10 8.0
2015-Aug-17 15:18N 46°18' W 084°13'4 5.1
2015-Aug-17 14:33N 46°22' W 084°13'11 3.5
2015-Aug-17 11:32N 46°30' W 084°22'0 0.1
2015-Aug-17 10:31N 46°30' W 084°22'  

Dump ship's entire track history